createdAt,value
2017-07-31T00:01:36.636Z,1.80
2017-07-31T00:04:05.939Z,2.03
2017-07-31T00:06:34.652Z,1.77
2017-07-31T00:09:03.539Z,2.33
2017-07-31T00:11:32.429Z,1.53
2017-07-31T00:14:01.323Z,1.53
2017-07-31T00:16:30.211Z,2.03
2017-07-31T00:18:59.104Z,1.53
2017-07-31T00:21:27.991Z,2.40
2017-07-31T00:23:56.675Z,2.27
2017-07-31T00:26:25.567Z,1.90
2017-07-31T00:28:54.458Z,1.93
2017-07-31T00:31:23.758Z,2.10
2017-07-31T00:33:52.450Z,2.00
2017-07-31T00:36:21.305Z,2.33
2017-07-31T00:38:50.226Z,1.53
2017-07-31T00:41:19.117Z,2.20
2017-07-31T00:43:48.412Z,2.20
2017-07-31T00:46:17.305Z,2.07
2017-07-31T00:48:46.197Z,1.73
2017-07-31T00:51:15.098Z,1.80
2017-07-31T00:53:44.592Z,2.50
2017-07-31T00:56:13.482Z,2.10
2017-07-31T00:58:42.166Z,2.03
2017-07-31T01:01:11.056Z,1.80
2017-07-31T01:03:39.961Z,1.77
2017-07-31T01:06:08.837Z,2.07
2017-07-31T01:08:38.137Z,2.03
2017-07-31T01:11:07.028Z,2.33
2017-07-31T01:13:35.721Z,1.97
2017-07-31T01:16:04.603Z,1.70
2017-07-31T01:18:33.498Z,2.37
2017-07-31T01:21:02.396Z,2.20
2017-07-31T01:23:31.276Z,2.10
2017-07-31T01:25:59.966Z,1.50
2017-07-31T01:28:29.658Z,1.60
2017-07-31T01:30:58.562Z,1.90
2017-07-31T01:33:27.456Z,2.40
2017-07-31T01:35:56.343Z,2.50
2017-07-31T01:38:25.235Z,1.70
2017-07-31T01:40:54.128Z,2.20
2017-07-31T01:43:23.013Z,1.80
2017-07-31T01:45:51.914Z,2.17
2017-07-31T01:48:21.208Z,2.83
2017-07-31T01:50:50.065Z,2.10
2017-07-31T01:53:19.708Z,2.00
2017-07-31T01:55:48.575Z,2.07
2017-07-31T01:58:17.679Z,2.23
2017-07-31T02:00:46.578Z,2.43
2017-07-31T02:03:15.475Z,2.10
2017-07-31T02:05:45.190Z,2.53
2017-07-31T02:08:14.073Z,2.57
2017-07-31T02:10:42.755Z,1.83
2017-07-31T02:13:11.650Z,2.10
2017-07-31T02:15:40.337Z,1.73
2017-07-31T02:18:09.225Z,2.50
2017-07-31T02:20:38.117Z,2.00
2017-07-31T02:23:07.212Z,2.50
2017-07-31T02:25:35.899Z,2.57
2017-07-31T02:28:04.990Z,2.90
2017-07-31T02:30:33.683Z,2.67
2017-07-31T02:33:03.387Z,2.63
2017-07-31T02:35:32.273Z,2.40
2017-07-31T02:38:00.964Z,2.30
2017-07-31T02:40:29.631Z,2.50
2017-07-31T02:42:58.540Z,2.37
2017-07-31T02:45:27.434Z,2.00
2017-07-31T02:47:56.321Z,2.60
2017-07-31T02:50:25.214Z,3.00
2017-07-31T02:52:53.896Z,3.17
2017-07-31T02:55:22.579Z,3.77
2017-07-31T02:57:51.885Z,3.63
2017-07-31T03:00:20.769Z,3.63
2017-07-31T03:02:50.278Z,3.10
2017-07-31T03:05:18.959Z,3.30
2017-07-31T03:07:47.852Z,2.87
2017-07-31T03:10:16.741Z,3.03
2017-07-31T03:12:45.634Z,2.60
2017-07-31T03:15:14.528Z,3.00
2017-07-31T03:17:43.412Z,3.20
2017-07-31T03:20:12.306Z,4.43
2017-07-31T03:22:41.192Z,3.07
2017-07-31T03:25:10.084Z,3.03
2017-07-31T03:27:38.979Z,3.30
2017-07-31T03:30:07.865Z,3.53
2017-07-31T03:32:36.756Z,3.60
2017-07-31T03:35:05.650Z,4.53
2017-07-31T03:37:35.130Z,3.13
2017-07-31T03:40:04.040Z,5.27
2017-07-31T03:42:33.752Z,3.53
2017-07-31T03:45:02.643Z,3.67
2017-07-31T03:47:31.332Z,4.23
2017-07-31T03:50:00.220Z,4.80
2017-07-31T03:52:29.097Z,4.20
2017-07-31T03:54:58.002Z,4.93
2017-07-31T03:57:26.893Z,4.20
2017-07-31T03:59:55.783Z,5.20
2017-07-31T04:02:24.670Z,4.00
2017-07-31T04:04:53.571Z,4.97
2017-07-31T04:07:22.254Z,5.00
2017-07-31T04:09:51.137Z,4.70
2017-07-31T04:12:20.032Z,5.67
2017-07-31T04:14:48.923Z,4.87
2017-07-31T04:17:17.819Z,7.93
2017-07-31T04:19:46.699Z,77.80
2017-07-31T04:22:15.596Z,72.97
2017-07-31T04:24:44.550Z,77.83
2017-07-31T04:27:13.480Z,83.97
2017-07-31T04:29:42.375Z,73.27
2017-07-31T04:32:11.261Z,52.60
2017-07-31T04:34:40.153Z,55.83
2017-07-31T04:37:09.034Z,48.33
2017-07-31T04:39:37.929Z,48.00
2017-07-31T04:42:06.702Z,37.53
2017-07-31T04:44:36.530Z,38.93
2017-07-31T04:47:06.033Z,30.73
2017-07-31T04:49:35.741Z,33.20
2017-07-31T04:52:04.631Z,22.83
2017-07-31T04:54:33.547Z,21.63
2017-07-31T04:57:02.692Z,23.90
2017-07-31T04:59:32.331Z,20.37
2017-07-31T05:02:01.222Z,17.00
2017-07-31T05:04:30.109Z,16.07
2017-07-31T05:06:59.002Z,14.10
2017-07-31T05:09:28.096Z,13.70
2017-07-31T05:11:57.189Z,12.60
2017-07-31T05:14:26.084Z,12.87
2017-07-31T05:16:54.969Z,12.10
2017-07-31T05:19:24.888Z,10.90
2017-07-31T05:21:53.784Z,10.63
2017-07-31T05:24:22.665Z,11.53
2017-07-31T05:26:51.764Z,10.30
2017-07-31T05:29:20.656Z,8.50
2017-07-31T05:31:49.746Z,7.80
2017-07-31T05:34:18.818Z,7.33
2017-07-31T05:36:48.698Z,7.40
2017-07-31T05:39:17.442Z,7.03
2017-07-31T05:41:46.335Z,6.63
2017-07-31T05:44:15.225Z,6.23
2017-07-31T05:46:44.113Z,6.60
2017-07-31T05:49:13.002Z,7.50
2017-07-31T05:51:41.895Z,6.50
2017-07-31T05:54:10.792Z,7.53
2017-07-31T05:56:40.087Z,7.10
2017-07-31T05:59:09.171Z,6.43
2017-07-31T06:01:38.684Z,6.47
2017-07-31T06:04:07.784Z,5.70
2017-07-31T06:06:36.672Z,7.20
2017-07-31T06:09:05.355Z,6.17
2017-07-31T06:11:34.247Z,6.30
2017-07-31T06:14:03.698Z,6.30
2017-07-31T06:16:32.438Z,4.93
2017-07-31T06:19:01.335Z,6.17
2017-07-31T06:21:30.435Z,6.17
2017-07-31T06:23:59.315Z,5.90
2017-07-31T06:26:28.187Z,5.43
2017-07-31T06:28:57.079Z,6.13
2017-07-31T06:31:25.983Z,5.30
2017-07-31T06:33:54.880Z,4.97
2017-07-31T06:36:23.781Z,5.57
2017-07-31T06:38:52.663Z,5.70
2017-07-31T06:41:21.697Z,5.50
2017-07-31T06:43:50.589Z,5.23
2017-07-31T06:46:19.535Z,6.17
2017-07-31T06:48:48.421Z,4.43
2017-07-31T06:51:17.316Z,5.47
2017-07-31T06:53:46.408Z,4.40
2017-07-31T06:56:15.505Z,4.90
2017-07-31T06:58:44.600Z,4.97
2017-07-31T07:01:13.509Z,3.93
2017-07-31T07:03:44.226Z,3.53
2017-07-31T07:06:13.514Z,3.30
2017-07-31T07:08:43.219Z,4.10
2017-07-31T07:11:12.129Z,3.53
2017-07-31T07:13:41.384Z,3.27
2017-07-31T07:16:11.256Z,3.87
2017-07-31T07:18:40.229Z,3.40
2017-07-31T07:21:09.120Z,3.03
2017-07-31T07:23:38.214Z,3.57
2017-07-31T07:26:07.928Z,3.10
2017-07-31T07:28:37.207Z,2.73
2017-07-31T07:31:06.324Z,3.23
2017-07-31T07:33:35.393Z,2.93
2017-07-31T07:36:04.924Z,2.87
2017-07-31T07:38:33.816Z,2.50
2017-07-31T07:41:02.908Z,2.70
2017-07-31T07:43:31.794Z,2.43
2017-07-31T07:46:00.688Z,3.00
2017-07-31T07:48:29.584Z,3.23
2017-07-31T07:50:58.472Z,2.33
2017-07-31T07:53:27.357Z,2.37
2017-07-31T07:55:56.250Z,3.13
2017-07-31T07:58:25.145Z,2.67
2017-07-31T08:00:54.034Z,2.60
2017-07-31T08:03:23.127Z,2.87
2017-07-31T08:05:52.019Z,2.30
2017-07-31T08:08:20.907Z,2.53
2017-07-31T08:10:50.207Z,2.60
2017-07-31T08:13:19.095Z,2.07
2017-07-31T08:15:47.998Z,2.47
2017-07-31T08:18:17.734Z,1.90
2017-07-31T08:20:46.792Z,2.33
2017-07-31T08:23:15.685Z,2.30
2017-07-31T08:25:44.692Z,2.80
2017-07-31T08:28:13.622Z,2.50
2017-07-31T08:30:42.353Z,2.20
2017-07-31T08:33:11.041Z,2.60
2017-07-31T08:35:40.547Z,2.60
2017-07-31T08:38:10.854Z,2.10
2017-07-31T08:40:39.554Z,2.57
2017-07-31T08:43:08.458Z,2.10
2017-07-31T08:45:37.352Z,2.43
2017-07-31T08:48:06.433Z,3.00
2017-07-31T08:50:35.117Z,2.10
2017-07-31T08:53:04.012Z,1.90
2017-07-31T08:55:33.057Z,9.43
2017-07-31T08:58:01.787Z,9.57
2017-07-31T09:00:30.682Z,7.40
2017-07-31T09:03:00.592Z,5.10
2017-07-31T09:05:29.454Z,4.03
2017-07-31T09:07:58.276Z,5.00
2017-07-31T09:10:27.369Z,3.80
2017-07-31T09:12:56.260Z,3.33
2017-07-31T09:15:25.050Z,2.43
2017-07-31T09:17:54.958Z,2.70
2017-07-31T09:20:23.614Z,3.53
2017-07-31T09:22:52.332Z,3.10
2017-07-31T09:25:21.426Z,3.00
2017-07-31T09:27:50.281Z,3.00
2017-07-31T09:30:19.207Z,2.73
2017-07-31T09:32:48.081Z,1.77
2017-07-31T09:35:17.401Z,2.00
2017-07-31T09:37:46.290Z,1.97
2017-07-31T09:40:16.156Z,2.60
2017-07-31T09:42:45.557Z,2.27
2017-07-31T09:45:17.006Z,2.20
2017-07-31T09:47:46.362Z,1.90
2017-07-31T09:50:16.325Z,2.50
2017-07-31T09:52:45.646Z,2.60
2017-07-31T09:55:16.911Z,2.10
2017-07-31T09:57:45.826Z,1.93
